createdAt,value
2023-01-07T00:01:50.092Z,40.33
2023-01-07T00:06:53.119Z,53.92
2023-01-07T00:11:47.324Z,50.20
2023-01-07T00:16:41.227Z,52.65
2023-01-07T00:21:35.367Z,53.38
2023-01-07T00:26:32.270Z,53.55
2023-01-07T00:31:34.140Z,43.97
2023-01-07T00:36:29.643Z,44.53
2023-01-07T00:41:23.275Z,42.90
2023-01-07T00:46:17.100Z,42.45
2023-01-07T00:51:13.980Z,37.78
2023-01-07T00:56:07.829Z,38.83
2023-01-07T01:01:02.666Z,32.35
2023-01-07T01:06:01.322Z,42.10
2023-01-07T01:10:54.705Z,36.15
2023-01-07T01:15:49.571Z,33.28
2023-01-07T01:20:43.741Z,39.90
2023-01-07T01:25:37.835Z,43.15
2023-01-07T01:30:32.314Z,49.95
2023-01-07T01:35:27.021Z,42.83
2023-01-07T01:40:21.625Z,41.33
2023-01-07T01:45:15.439Z,34.78
2023-01-07T01:50:28.205Z,35.90
2023-01-07T01:55:26.666Z,32.13
2023-01-07T02:00:22.068Z,34.25
2023-01-07T02:05:17.319Z,29.98
2023-01-07T02:10:12.265Z,29.75
2023-01-07T02:15:19.592Z,29.70
2023-01-07T02:20:30.738Z,29.63
2023-01-07T02:26:04.360Z,30.90
2023-01-07T02:31:18.882Z,30.10
2023-01-07T02:36:30.007Z,29.67
2023-01-07T02:41:49.744Z,28.25
2023-01-07T02:46:57.556Z,20.50
2023-01-07T02:51:52.569Z,24.23
2023-01-07T02:57:16.621Z,24.35
2023-01-07T03:02:54.302Z,28.08
2023-01-07T03:08:12.621Z,24.52
2023-01-07T03:13:17.506Z,19.33
2023-01-07T03:18:35.855Z,22.98
2023-01-07T03:23:53.055Z,18.67
2023-01-07T03:28:46.729Z,22.60
2023-01-07T03:33:44.959Z,16.55
2023-01-07T03:38:38.643Z,22.85
2023-01-07T03:43:33.486Z,14.98
2023-01-07T03:48:27.197Z,19.05
2023-01-07T03:53:22.214Z,12.50
2023-01-07T03:58:18.126Z,18.35
2023-01-07T04:03:12.622Z,15.10
2023-01-07T04:08:09.149Z,15.55
2023-01-07T04:13:05.265Z,15.80
2023-01-07T04:17:58.725Z,13.75
2023-01-07T04:22:52.365Z,13.52
2023-01-07T04:27:45.532Z,13.95
2023-01-07T04:32:39.487Z,13.52
2023-01-07T04:37:32.745Z,15.40
2023-01-07T04:42:27.249Z,12.30
2023-01-07T04:47:21.265Z,13.95
2023-01-07T04:52:15.125Z,14.75
2023-01-07T04:57:09.690Z,13.10
2023-01-07T05:02:03.929Z,14.45
2023-01-07T05:06:57.164Z,15.10
2023-01-07T05:11:52.230Z,12.80
2023-01-07T05:16:45.645Z,19.67
2023-01-07T05:21:39.532Z,18.90
2023-01-07T05:26:33.417Z,15.95
2023-01-07T05:31:27.370Z,14.68
2023-01-07T05:36:21.906Z,12.65
2023-01-07T05:41:16.432Z,14.32
2023-01-07T05:46:10.222Z,12.27
2023-01-07T05:51:04.832Z,13.38
2023-01-07T05:55:58.934Z,9.55
2023-01-07T06:00:52.635Z,13.85
2023-01-07T06:05:46.964Z,10.98
2023-01-07T06:10:40.277Z,14.38
2023-01-07T06:15:34.410Z,9.68
2023-01-07T06:20:30.284Z,9.18
2023-01-07T06:25:23.902Z,10.38
2023-01-07T06:30:18.319Z,10.18
2023-01-07T06:35:13.139Z,9.45
2023-01-07T06:40:07.907Z,12.68
2023-01-07T06:45:01.920Z,19.27
2023-01-07T06:49:56.217Z,13.90
2023-01-07T06:54:50.291Z,11.20
2023-01-07T06:59:48.132Z,11.02
2023-01-07T07:04:42.603Z,12.98
2023-01-07T07:09:35.579Z,12.68
2023-01-07T07:14:28.777Z,11.43
2023-01-07T07:19:22.803Z,9.48
2023-01-07T07:24:17.191Z,10.27
2023-01-07T07:29:11.224Z,10.60
2023-01-07T07:34:05.452Z,11.32
2023-01-07T07:38:59.179Z,11.70
2023-01-07T07:43:53.483Z,11.82
2023-01-07T07:48:49.524Z,11.90
2023-01-07T07:53:43.469Z,10.35
2023-01-07T07:58:36.721Z,12.35
2023-01-07T08:03:30.797Z,10.48
2023-01-07T08:08:24.387Z,9.23
2023-01-07T08:13:17.933Z,8.40
2023-01-07T08:18:11.084Z,10.27
2023-01-07T08:23:05.416Z,11.32
2023-01-07T08:28:00.067Z,11.38
2023-01-07T08:32:54.696Z,10.93
2023-01-07T08:37:47.888Z,10.43
2023-01-07T08:42:43.759Z,9.43
2023-01-07T08:47:36.184Z,10.57
2023-01-07T08:52:29.994Z,15.32
2023-01-07T08:57:23.420Z,9.85
2023-01-07T09:02:21.598Z,8.93
2023-01-07T09:07:15.660Z,9.07
2023-01-07T09:12:11.105Z,11.07
2023-01-07T09:17:04.525Z,14.18
2023-01-07T09:21:58.041Z,10.80
2023-01-07T09:26:51.748Z,18.77
2023-01-07T09:31:45.412Z,10.93
2023-01-07T09:36:38.472Z,10.65
2023-01-07T09:41:47.086Z,11.50
2023-01-07T09:46:41.093Z,10.77
2023-01-07T09:51:39.542Z,9.52
2023-01-07T09:56:34.644Z,12.38
2023-01-07T10:01:48.120Z,13.60
2023-01-07T10:06:59.590Z,9.25
2023-01-07T10:12:04.320Z,9.57
2023-01-07T10:17:09.448Z,13.13
2023-01-07T10:22:19.319Z,10.68
2023-01-07T10:27:15.589Z,10.30
2023-01-07T10:32:20.434Z,10.73
2023-01-07T10:37:34.028Z,12.02
2023-01-07T10:43:04.979Z,10.25
2023-01-07T10:48:07.306Z,10.30
2023-01-07T10:53:17.377Z,13.98
2023-01-07T10:58:13.192Z,10.50
2023-01-07T11:03:19.900Z,9.38
2023-01-07T11:08:21.651Z,11.55
2023-01-07T11:13:39.135Z,11.52
2023-01-07T11:18:53.518Z,12.23
2023-01-07T11:23:47.417Z,14.63
2023-01-07T11:28:59.252Z,10.57
2023-01-07T11:34:02.800Z,11.90
2023-01-07T11:39:17.288Z,11.27
2023-01-07T11:44:20.215Z,12.95
2023-01-07T11:49:40.085Z,15.43
2023-01-07T11:54:34.247Z,14.00
2023-01-07T11:59:29.629Z,19.65
2023-01-07T12:04:36.749Z,12.35
2023-01-07T12:09:38.250Z,18.80
2023-01-07T12:14:34.714Z,17.75
2023-01-07T12:19:46.640Z,17.30
2023-01-07T12:24:53.820Z,11.85
2023-01-07T12:30:06.272Z,14.60
2023-01-07T12:35:40.745Z,15.05
2023-01-07T12:41:16.536Z,17.10
2023-01-07T12:47:30.893Z,15.48
2023-01-07T12:52:31.706Z,14.23
2023-01-07T12:57:29.586Z,13.68
2023-01-07T13:02:37.523Z,13.23
2023-01-07T13:07:43.256Z,13.95
2023-01-07T13:12:45.551Z,18.27
2023-01-07T13:17:40.813Z,16.95
2023-01-07T13:23:06.860Z,15.15
2023-01-07T13:28:27.364Z,14.55
2023-01-07T13:33:38.522Z,18.83
2023-01-07T13:38:54.901Z,17.10
2023-01-07T13:44:10.051Z,14.25
2023-01-07T13:49:03.806Z,19.83
2023-01-07T13:53:56.986Z,22.38
2023-01-07T13:59:29.323Z,21.08
2023-01-07T14:04:49.141Z,18.27
2023-01-07T14:09:43.248Z,20.35
2023-01-07T14:14:53.778Z,18.88
2023-01-07T14:20:21.662Z,21.00
2023-01-07T14:25:22.905Z,20.02
2023-01-07T14:30:20.897Z,21.25
2023-01-07T14:35:13.460Z,19.27
2023-01-07T14:40:33.591Z,16.98
2023-01-07T14:45:38.847Z,18.63
2023-01-07T14:50:47.953Z,17.70
2023-01-07T14:55:51.777Z,14.65
2023-01-07T15:01:22.626Z,18.38
2023-01-07T15:06:21.804Z,18.63
2023-01-07T15:11:39.781Z,17.63
2023-01-07T15:16:34.826Z,16.73
2023-01-07T15:21:49.006Z,19.13
2023-01-07T15:27:07.420Z,19.23
2023-01-07T15:32:38.270Z,26.85
2023-01-07T15:37:32.580Z,21.30
2023-01-07T15:42:28.136Z,21.90
2023-01-07T15:47:54.437Z,19.75
2023-01-07T15:52:53.666Z,19.08
2023-01-07T15:57:47.680Z,18.58
2023-01-07T16:02:42.878Z,17.23
2023-01-07T16:07:58.160Z,21.00
2023-01-07T16:12:56.855Z,26.88
2023-01-07T16:17:52.203Z,20.50
2023-01-07T16:22:45.586Z,20.27
2023-01-07T16:27:39.569Z,25.88
2023-01-07T16:32:34.536Z,27.38
2023-01-07T16:37:27.881Z,20.90
2023-01-07T16:42:25.189Z,30.73
2023-01-07T16:47:28.358Z,30.85
2023-01-07T16:52:23.916Z,21.33
2023-01-07T16:57:17.198Z,21.17
2023-01-07T17:02:30.756Z,26.40
2023-01-07T17:07:27.207Z,20.00
2023-01-07T17:12:31.295Z,26.33
2023-01-07T17:17:27.658Z,23.70
2023-01-07T17:22:34.138Z,26.88
2023-01-07T17:27:30.248Z,24.48
2023-01-07T17:32:25.020Z,20.25
2023-01-07T17:37:18.174Z,18.98
2023-01-07T17:42:48.246Z,23.42
2023-01-07T17:47:41.681Z,22.80
2023-01-07T17:52:35.653Z,27.77
2023-01-07T17:57:29.203Z,28.65
2023-01-07T18:02:26.640Z,25.80
2023-01-07T18:07:20.255Z,23.67
2023-01-07T18:12:30.875Z,25.27
2023-01-07T18:17:23.597Z,29.35
2023-01-07T18:22:17.353Z,28.58
2023-01-07T18:27:16.937Z,24.45
2023-01-07T18:32:10.179Z,25.60
2023-01-07T18:37:04.477Z,25.30
2023-01-07T18:41:58.454Z,26.67
2023-01-07T18:46:51.847Z,34.00
2023-01-07T18:51:47.732Z,24.15
2023-01-07T18:56:41.730Z,24.48
2023-01-07T19:01:35.672Z,33.08
2023-01-07T19:06:28.880Z,28.05
2023-01-07T19:11:21.986Z,25.33
2023-01-07T19:16:15.762Z,27.15
2023-01-07T19:21:12.684Z,31.23
2023-01-07T19:26:09.045Z,35.17
2023-01-07T19:31:05.746Z,34.08
2023-01-07T19:36:09.854Z,50.47
2023-01-07T19:41:03.457Z,27.65
2023-01-07T19:45:57.825Z,38.85
2023-01-07T19:51:03.369Z,37.80
2023-01-07T19:56:01.805Z,39.28
2023-01-07T20:00:55.480Z,31.17
2023-01-07T20:05:49.031Z,35.15
2023-01-07T20:10:43.665Z,48.65
2023-01-07T20:15:37.820Z,43.72
2023-01-07T20:20:32.369Z,32.45
2023-01-07T20:25:27.760Z,31.17
2023-01-07T20:30:21.933Z,35.90
2023-01-07T20:35:16.047Z,38.53
2023-01-07T20:40:12.192Z,31.45
2023-01-07T20:45:12.990Z,35.17
2023-01-07T20:50:09.284Z,46.22
2023-01-07T20:55:04.052Z,47.85
2023-01-07T20:59:57.543Z,60.67
2023-01-07T21:04:52.000Z,45.17
2023-01-07T21:09:46.518Z,39.42
2023-01-07T21:14:39.957Z,54.67
2023-01-07T21:19:33.387Z,42.10
2023-01-07T21:24:27.276Z,41.05
2023-01-07T21:29:21.153Z,43.45
2023-01-07T21:34:15.873Z,42.47
2023-01-07T21:39:11.136Z,32.92
2023-01-07T21:44:04.309Z,33.05
2023-01-07T21:48:57.865Z,36.72
2023-01-07T21:53:52.573Z,51.03
2023-01-07T21:58:46.819Z,39.55
2023-01-07T22:03:40.499Z,45.58
2023-01-07T22:08:34.623Z,43.35
2023-01-07T22:13:27.749Z,40.42
2023-01-07T22:18:21.718Z,38.38
2023-01-07T22:23:18.916Z,39.40
2023-01-07T22:28:12.754Z,34.92
2023-01-07T22:33:06.164Z,31.38
2023-01-07T22:38:02.439Z,38.05
2023-01-07T22:42:58.810Z,36.20
2023-01-07T22:47:53.108Z,41.80
2023-01-07T22:52:46.609Z,45.35
2023-01-07T22:57:39.933Z,44.28
2023-01-07T23:02:34.345Z,38.05
2023-01-07T23:07:27.864Z,43.97
2023-01-07T23:12:21.749Z,40.15
2023-01-07T23:17:15.774Z,40.53
2023-01-07T23:22:09.750Z,38.88
2023-01-07T23:27:03.751Z,46.80
2023-01-07T23:31:58.066Z,38.65
2023-01-07T23:36:52.301Z,41.17
2023-01-07T23:41:46.539Z,42.78
2023-01-07T23:46:40.934Z,36.28
2023-01-07T23:51:34.801Z,39.83
2023-01-07T23:56:28.290Z,35.97
